sensor_id;sensor_type;location;lat;lon;timestamp;pressure;altitude;pressure_sealevel;temperature;humidity
46412;BME280;32113;42.012;24.870;2023-02-04T00:00:44;98961.53;;;6.10;39.40
46412;BME280;32113;42.012;24.870;2023-02-04T00:03:10;98955.72;;;6.29;38.79
46412;BME280;32113;42.012;24.870;2023-02-04T00:05:35;98951.53;;;6.44;38.34
46412;BME280;32113;42.012;24.870;2023-02-04T00:08:01;98941.41;;;6.53;37.72
46412;BME280;32113;42.012;24.870;2023-02-04T00:10:26;98933.69;;;6.47;38.91
46412;BME280;32113;42.012;24.870;2023-02-04T00:12:51;98923.22;;;5.97;41.47
46412;BME280;32113;42.012;24.870;2023-02-04T00:15:17;98924.03;;;5.93;43.11
46412;BME280;32113;42.012;24.870;2023-02-04T00:17:42;98919.81;;;5.92;43.57
46412;BME280;32113;42.012;24.870;2023-02-04T00:20:07;98913.84;;;5.93;44.31
46412;BME280;32113;42.012;24.870;2023-02-04T00:22:33;98915.53;;;5.92;44.28
46412;BME280;32113;42.012;24.870;2023-02-04T00:24:58;98909.63;;;5.94;45.11
46412;BME280;32113;42.012;24.870;2023-02-04T00:27:23;98897.69;;;5.86;45.41
46412;BME280;32113;42.012;24.870;2023-02-04T00:29:49;98887.44;;;5.75;45.74
46412;BME280;32113;42.012;24.870;2023-02-04T00:32:14;98883.16;;;5.71;47.33
46412;BME280;32113;42.012;24.870;2023-02-04T00:34:39;98875.44;;;5.60;47.70
46412;BME280;32113;42.012;24.870;2023-02-04T00:37:05;98869.47;;;5.52;47.66
46412;BME280;32113;42.012;24.870;2023-02-04T00:39:30;98866.88;;;5.47;47.36
46412;BME280;32113;42.012;24.870;2023-02-04T00:41:55;98864.31;;;5.43;47.00
46412;BME280;32113;42.012;24.870;2023-02-04T00:44:20;98870.28;;;5.52;48.42
46412;BME280;32113;42.012;24.870;2023-02-04T00:46:46;98873.81;;;5.70;48.81
46412;BME280;32113;42.012;24.870;2023-02-04T00:49:12;98877.31;;;5.85;47.02
46412;BME280;32113;42.012;24.870;2023-02-04T00:51:38;98866.34;;;5.98;43.82
46412;BME280;32113;42.012;24.870;2023-02-04T00:54:04;98871.56;;;6.18;43.72
46412;BME280;32113;42.012;24.870;2023-02-04T00:56:29;98869.06;;;6.33;43.90
46412;BME280;32113;42.012;24.870;2023-02-04T00:58:55;98882.72;;;6.41;43.38
46412;BME280;32113;42.012;24.870;2023-02-04T01:01:20;98878.50;;;6.57;43.71
46412;BME280;32113;42.012;24.870;2023-02-04T01:03:45;98876.00;;;6.71;43.18
46412;BME280;32113;42.012;24.870;2023-02-04T01:06:10;98878.56;;;6.80;43.19
46412;BME280;32113;42.012;24.870;2023-02-04T01:08:36;98876.06;;;6.88;42.13
46412;BME280;32113;42.012;24.870;2023-02-04T01:11:01;98875.19;;;6.94;41.45
46412;BME280;32113;42.012;24.870;2023-02-04T01:13:26;98866.69;;;6.98;41.60
46412;BME280;32113;42.012;24.870;2023-02-04T01:15:52;98859.91;;;7.00;39.59
46412;BME280;32113;42.012;24.870;2023-02-04T01:18:17;98852.25;;;7.06;39.54
46412;BME280;32113;42.012;24.870;2023-02-04T01:20:42;98847.16;;;7.16;40.12
46412;BME280;32113;42.012;24.870;2023-02-04T01:23:07;98840.34;;;7.27;40.06
46412;BME280;32113;42.012;24.870;2023-02-04T01:25:33;98840.34;;;7.32;40.57
46412;BME280;32113;42.012;24.870;2023-02-04T01:27:58;98835.25;;;7.43;38.65
46412;BME280;32113;42.012;24.870;2023-02-04T01:30:23;98836.06;;;7.53;38.85
46412;BME280;32113;42.012;24.870;2023-02-04T01:32:49;98824.19;;;7.56;38.89
46412;BME280;32113;42.012;24.870;2023-02-04T01:35:14;98824.19;;;7.45;40.42
46412;BME280;32113;42.012;24.870;2023-02-04T01:37:39;98819.06;;;7.42;40.89
46412;BME280;32113;42.012;24.870;2023-02-04T01:40:05;98809.75;;;7.35;41.97
46412;BME280;32113;42.012;24.870;2023-02-04T01:42:30;98798.69;;;7.27;43.21
46412;BME280;32113;42.012;24.870;2023-02-04T01:44:55;98797.84;;;7.00;43.77
46412;BME280;32113;42.012;24.870;2023-02-04T01:47:21;98774.84;;;7.06;42.31
46412;BME280;32113;42.012;24.870;2023-02-04T01:49:48;98768.91;;;6.71;40.84
46412;BME280;32113;42.012;24.870;2023-02-04T01:52:15;98758.72;;;6.68;41.65
46412;BME280;32113;42.012;24.870;2023-02-04T01:54:41;98737.44;;;6.49;42.18
46412;BME280;32113;42.012;24.870;2023-02-04T01:57:08;98742.50;;;6.30;44.55
46412;BME280;32113;42.012;24.870;2023-02-04T01:59:34;98726.31;;;6.04;46.87
46412;BME280;32113;42.012;24.870;2023-02-04T02:01:59;98724.47;;;5.63;50.14
46412;BME280;32113;42.012;24.870;2023-02-04T02:06:54;98722.81;;;5.82;47.62
46412;BME280;32113;42.012;24.870;2023-02-04T02:09:21;98709.28;;;5.94;45.56
46412;BME280;32113;42.012;24.870;2023-02-04T02:11:46;98712.75;;;6.09;45.05
46412;BME280;32113;42.012;24.870;2023-02-04T02:14:12;98715.19;;;5.84;44.70
46412;BME280;32113;42.012;24.870;2023-02-04T02:16:37;98715.97;;;5.64;48.15
46412;BME280;32113;42.012;24.870;2023-02-04T02:19:03;98716.91;;;5.86;48.30
46412;BME280;32113;42.012;24.870;2023-02-04T02:21:39;98705.00;;;5.84;44.64
46412;BME280;32113;42.012;24.870;2023-02-04T02:26:50;98724.38;;;5.44;46.87
46412;BME280;32113;42.012;24.870;2023-02-04T02:29:15;98721.78;;;5.38;48.58
46412;BME280;32113;42.012;24.870;2023-02-04T02:31:41;98720.13;;;5.45;49.43
46412;BME280;32113;42.012;24.870;2023-02-04T02:34:06;98724.38;;;5.44;50.78
46412;BME280;32113;42.012;24.870;2023-02-04T02:36:31;98719.34;;;5.60;50.94
46412;BME280;32113;42.012;24.870;2023-02-04T02:38:56;98722.66;;;5.46;47.90
46412;BME280;32113;42.012;24.870;2023-02-04T02:41:24;98709.03;;;5.32;46.41
46412;BME280;32113;42.012;24.870;2023-02-04T02:43:49;98702.97;;;5.09;44.90
46412;BME280;32113;42.012;24.870;2023-02-04T02:46:14;98695.41;;;5.19;43.80
46412;BME280;32113;42.012;24.870;2023-02-04T02:48:40;98695.28;;;5.00;44.35
46412;BME280;32113;42.012;24.870;2023-02-04T02:51:05;98689.25;;;4.89;44.46
46412;BME280;32113;42.012;24.870;2023-02-04T02:53:30;98684.13;;;4.81;44.46
46412;BME280;32113;42.012;24.870;2023-02-04T02:55:56;98692.56;;;4.73;44.18
46412;BME280;32113;42.012;24.870;2023-02-04T02:58:28;98680.72;;;4.80;44.40
46412;BME280;32113;42.012;24.870;2023-02-04T03:00:54;98667.25;;;4.92;44.74
46412;BME280;32113;42.012;24.870;2023-02-04T03:03:24;98667.31;;;5.05;44.66
46412;BME280;32113;42.012;24.870;2023-02-04T03:05:52;98662.25;;;5.06;45.14
46412;BME280;32113;42.012;24.870;2023-02-04T03:08:18;98664.84;;;5.14;44.67
46412;BME280;32113;42.012;24.870;2023-02-04T03:10:44;98647.06;;;5.19;43.18
46412;BME280;32113;42.012;24.870;2023-02-04T03:13:10;98655.56;;;5.29;42.26
46412;BME280;32113;42.012;24.870;2023-02-04T03:15:36;98647.97;;;5.32;42.15
46412;BME280;32113;42.012;24.870;2023-02-04T03:18:01;98637.84;;;5.44;42.15
46412;BME280;32113;42.012;24.870;2023-02-04T03:20:27;98635.34;;;5.60;42.42
46412;BME280;32113;42.012;24.870;2023-02-04T03:22:54;98632.00;;;5.72;43.40
46412;BME280;32113;42.012;24.870;2023-02-04T03:25:20;98633.69;;;5.71;43.48
46412;BME280;32113;42.012;24.870;2023-02-04T03:27:48;98621.81;;;5.72;42.95
46412;BME280;32113;42.012;24.870;2023-02-04T03:30:13;98620.09;;;5.74;42.50
46412;BME280;32113;42.012;24.870;2023-02-04T03:32:39;98624.34;;;5.65;43.23
46412;BME280;32113;42.012;24.870;2023-02-04T03:35:05;98618.38;;;5.62;45.16
46412;BME280;32113;42.012;24.870;2023-02-04T03:37:31;98620.06;;;5.64;43.89
46412;BME280;32113;42.012;24.870;2023-02-04T03:39:56;98621.75;;;5.51;43.16
46412;BME280;32113;42.012;24.870;2023-02-04T03:42:21;98623.47;;;5.57;43.70
46412;BME280;32113;42.012;24.870;2023-02-04T03:44:46;98615.81;;;5.60;44.46
46412;BME280;32113;42.012;24.870;2023-02-04T03:47:12;98611.63;;;5.72;45.74
46412;BME280;32113;42.012;24.870;2023-02-04T03:49:37;98604.00;;;5.73;45.30
46412;BME280;32113;42.012;24.870;2023-02-04T03:52:03;98612.47;;;5.75;45.34
46412;BME280;32113;42.012;24.870;2023-02-04T03:54:28;98607.41;;;5.78;44.51
46412;BME280;32113;42.012;24.870;2023-02-04T03:56:53;98604.00;;;5.86;44.88
46412;BME280;32113;42.012;24.870;2023-02-04T03:59:19;98604.91;;;6.03;44.65
46412;BME280;32113;42.012;24.870;2023-02-04T04:01:44;98601.53;;;6.28;44.97
46412;BME280;32113;42.012;24.870;2023-02-04T04:04:09;98603.22;;;6.46;44.79
46412;BME280;32113;42.012;24.870;2023-02-04T04:06:34;98598.94;;;6.64;45.72
46412;BME280;32113;42.012;24.870;2023-02-04T04:09:00;98587.91;;;6.69;46.80
46412;BME280;32113;42.012;24.870;2023-02-04T04:11:25;98597.25;;;6.69;47.17
46412;BME280;32113;42.012;24.870;2023-02-04T04:13:50;98584.50;;;6.72;48.02
46412;BME280;32113;42.012;24.870;2023-02-04T04:16:16;98576.81;;;6.78;49.28
46412;BME280;32113;42.012;24.870;2023-02-04T04:18:41;98564.06;;;6.81;49.07
46412;BME280;32113;42.012;24.870;2023-02-04T04:21:06;98554.69;;;6.93;48.91
46412;BME280;32113;42.012;24.870;2023-02-04T04:23:32;98545.34;;;6.93;47.30
46412;BME280;32113;42.012;24.870;2023-02-04T04:25:57;98535.13;;;6.92;45.66
46412;BME280;32113;42.012;24.870;2023-02-04T04:28:22;98538.53;;;6.86;43.14
46412;BME280;32113;42.012;24.870;2023-02-04T04:30:48;98529.22;;;6.74;44.02
46412;BME280;32113;42.012;24.870;2023-02-04T04:33:13;98536.03;;;6.78;45.30
46412;BME280;32113;42.012;24.870;2023-02-04T04:35:38;98522.41;;;6.84;46.40
46412;BME280;32113;42.012;24.870;2023-02-04T04:38:04;98526.63;;;6.93;47.89
46412;BME280;32113;42.012;24.870;2023-02-04T04:40:29;98527.47;;;6.89;48.40
46412;BME280;32113;42.012;24.870;2023-02-04T04:42:54;98532.59;;;6.92;48.24
46412;BME280;32113;42.012;24.870;2023-02-04T04:45:20;98538.53;;;6.84;48.65
46412;BME280;32113;42.012;24.870;2023-02-04T04:47:45;98542.78;;;6.89;47.68
46412;BME280;32113;42.012;24.870;2023-02-04T04:50:10;98557.19;;;7.02;47.76
46412;BME280;32113;42.012;24.870;2023-02-04T04:52:36;98561.47;;;7.00;47.71
46412;BME280;32113;42.012;24.870;2023-02-04T04:55:01;98561.47;;;6.99;48.24
46412;BME280;32113;42.012;24.870;2023-02-04T04:57:26;98552.97;;;6.93;48.67
46412;BME280;32113;42.012;24.870;2023-02-04T04:59:52;98554.69;;;6.83;46.69
46412;BME280;32113;42.012;24.870;2023-02-04T05:02:17;98535.19;;;6.70;45.21
46412;BME280;32113;42.012;24.870;2023-02-04T05:04:42;98536.06;;;6.70;45.65
46412;BME280;32113;42.012;24.870;2023-02-04T05:07:07;98547.09;;;6.79;45.49
46412;BME280;32113;42.012;24.870;2023-02-04T05:09:33;98535.16;;;6.81;46.41
46412;BME280;32113;42.012;24.870;2023-02-04T05:11:58;98536.88;;;6.79;46.29
46412;BME280;32113;42.012;24.870;2023-02-04T05:14:23;98538.56;;;6.77;47.07
46412;BME280;32113;42.012;24.870;2023-02-04T05:16:48;98531.75;;;6.82;47.85
46412;BME280;32113;42.012;24.870;2023-02-04T05:19:14;98526.66;;;6.82;48.37
46412;BME280;32113;42.012;24.870;2023-02-04T05:21:39;98536.03;;;6.78;48.15
46412;BME280;32113;42.012;24.870;2023-02-04T05:24:04;98525.78;;;6.86;47.81
46412;BME280;32113;42.012;24.870;2023-02-04T05:26:30;98529.22;;;6.77;45.91
46412;BME280;32113;42.012;24.870;2023-02-04T05:28:56;98524.09;;;6.83;45.51
46412;BME280;32113;42.012;24.870;2023-02-04T05:31:21;98511.38;;;6.71;44.02
46412;BME280;32113;42.012;24.870;2023-02-04T05:33:46;98514.78;;;6.68;43.98
46412;BME280;32113;42.012;24.870;2023-02-04T05:36:11;98509.69;;;6.72;45.27
46412;BME280;32113;42.012;24.870;2023-02-04T05:38:37;98518.13;;;6.86;44.52
46412;BME280;32113;42.012;24.870;2023-02-04T05:41:02;98525.75;;;6.97;45.34
46412;BME280;32113;42.012;24.870;2023-02-04T05:43:27;98534.22;;;7.05;45.99
46412;BME280;32113;42.012;24.870;2023-02-04T05:45:53;98535.06;;;7.09;46.60
46412;BME280;32113;42.012;24.870;2023-02-04T05:48:18;98534.22;;;7.07;45.63
46412;BME280;32113;42.012;24.870;2023-02-04T05:50:43;98533.38;;;7.03;45.61
46412;BME280;32113;42.012;24.870;2023-02-04T05:53:08;98546.16;;;6.99;46.12
46412;BME280;32113;42.012;24.870;2023-02-04T05:55:34;98541.09;;;6.89;48.72
46412;BME280;32113;42.012;24.870;2023-02-04T05:57:59;98539.41;;;6.82;48.73
46412;BME280;32113;42.012;24.870;2023-02-04T06:00:24;98540.25;;;6.84;48.63
46412;BME280;32113;42.012;24.870;2023-02-04T06:02:50;98538.53;;;6.91;49.00
46412;BME280;32113;42.012;24.870;2023-02-04T06:05:15;98532.59;;;6.89;48.94
46412;BME280;32113;42.012;24.870;2023-02-04T06:07:40;98541.91;;;6.93;49.27
46412;BME280;32113;42.012;24.870;2023-02-04T06:10:05;98539.34;;;7.02;49.19
46412;BME280;32113;42.012;24.870;2023-02-04T06:12:31;98537.59;;;7.14;48.27
46412;BME280;32113;42.012;24.870;2023-02-04T06:14:56;98538.44;;;7.13;45.83
46412;BME280;32113;42.012;24.870;2023-02-04T06:17:21;98529.91;;;7.15;45.26
46412;BME280;32113;42.012;24.870;2023-02-04T06:19:47;98550.38;;;7.07;44.22
46412;BME280;32113;42.012;24.870;2023-02-04T06:22:12;98539.25;;;7.21;44.45
46412;BME280;32113;42.012;24.870;2023-02-04T06:24:37;98551.13;;;7.28;43.51
46412;BME280;32113;42.012;24.870;2023-02-04T06:27:02;98541.75;;;7.33;43.55
46412;BME280;32113;42.012;24.870;2023-02-04T06:29:28;98531.53;;;7.32;44.27
46412;BME280;32113;42.012;24.870;2023-02-04T06:31:53;98539.19;;;7.32;44.59
46412;BME280;32113;42.012;24.870;2023-02-04T06:34:18;98526.38;;;7.41;45.37
46412;BME280;32113;42.012;24.870;2023-02-04T06:36:43;98537.44;;;7.45;45.90
46412;BME280;32113;42.012;24.870;2023-02-04T06:39:09;98548.50;;;7.45;46.60
46412;BME280;32113;42.012;24.870;2023-02-04T06:41:34;98534.84;;;7.49;46.93
46412;BME280;32113;42.012;24.870;2023-02-04T06:43:59;98534.97;;;7.26;45.04
46412;BME280;32113;42.012;24.870;2023-02-04T06:46:25;98547.72;;;7.26;45.95
46412;BME280;32113;42.012;24.870;2023-02-04T06:48:50;98541.75;;;7.33;46.22
46412;BME280;32113;42.012;24.870;2023-02-04T06:51:15;98537.47;;;7.35;46.88
46412;BME280;32113;42.012;24.870;2023-02-04T06:53:40;98549.38;;;7.38;47.40
46412;BME280;32113;42.012;24.870;2023-02-04T06:56:08;98545.94;;;7.45;47.65
46412;BME280;32113;42.012;24.870;2023-02-04T06:58:33;98556.09;;;7.50;46.74
46412;BME280;32113;42.012;24.870;2023-02-04T07:00:59;98553.50;;;7.59;47.08
46412;BME280;32113;42.012;24.870;2023-02-04T07:03:24;98544.09;;;7.68;47.21
46412;BME280;32113;42.012;24.870;2023-02-04T07:05:49;98545.72;;;7.80;47.14
46412;BME280;32113;42.012;24.870;2023-02-04T07:08:16;98549.91;;;7.88;46.83
46412;BME280;32113;42.012;24.870;2023-02-04T07:10:42;98566.06;;;7.94;47.69
46412;BME280;32113;42.012;24.870;2023-02-04T07:13:07;98556.69;;;7.93;48.36
46412;BME280;32113;42.012;24.870;2023-02-04T07:15:32;98570.31;;;7.96;47.81
46412;BME280;32113;42.012;24.870;2023-02-04T07:17:57;98559.22;;;7.93;47.23
46412;BME280;32113;42.012;24.870;2023-02-04T07:20:24;98554.16;;;7.89;47.87
46412;BME280;32113;42.012;24.870;2023-02-04T07:22:49;98561.09;;;7.75;48.00
46412;BME280;32113;42.012;24.870;2023-02-04T07:25:14;98563.66;;;7.70;48.54
46412;BME280;32113;42.012;24.870;2023-02-04T07:27:41;98560.97;;;7.91;48.26
46412;BME280;32113;42.012;24.870;2023-02-04T07:30:07;98558.34;;;8.00;47.85
46412;BME280;32113;42.012;24.870;2023-02-04T07:32:33;98562.56;;;8.06;47.48
46412;BME280;32113;42.012;24.870;2023-02-04T07:34:59;98555.66;;;8.17;47.26
46412;BME280;32113;42.012;24.870;2023-02-04T07:37:24;98566.69;;;8.19;47.12
46412;BME280;32113;42.012;24.870;2023-02-04T07:39:49;98558.13;;;8.23;45.52
46412;BME280;32113;42.012;24.870;2023-02-04T07:42:15;98566.59;;;8.32;45.35
46412;BME280;32113;42.012;24.870;2023-02-04T07:44:40;98560.59;;;8.34;44.70
46412;BME280;32113;42.012;24.870;2023-02-04T07:47:05;98554.69;;;8.27;44.42
46412;BME280;32113;42.012;24.870;2023-02-04T07:49:30;98554.84;;;8.13;44.49
46412;BME280;32113;42.012;24.870;2023-02-04T07:51:56;98558.22;;;8.12;45.01
46412;BME280;32113;42.012;24.870;2023-02-04T07:54:22;98546.38;;;8.07;45.19
46412;BME280;32113;42.012;24.870;2023-02-04T07:56:47;98529.28;;;8.15;45.09
46412;BME280;32113;42.012;24.870;2023-02-04T07:59:12;98534.41;;;8.10;45.53
46412;BME280;32113;42.012;24.870;2023-02-04T08:01:37;98520.78;;;8.10;45.45
46412;BME280;32113;42.012;24.870;2023-02-04T08:04:03;98514.66;;;8.30;45.39
46412;BME280;32113;42.012;24.870;2023-02-04T08:06:28;98516.44;;;8.17;46.24
46412;BME280;32113;42.012;24.870;2023-02-04T08:08:53;98514.53;;;8.40;45.54
46412;BME280;32113;42.012;24.870;2023-02-04T08:11:19;98490.72;;;8.35;44.86
46412;BME280;32113;42.012;24.870;2023-02-04T08:13:44;98505.16;;;8.39;44.06
46412;BME280;32113;42.012;24.870;2023-02-04T08:16:09;98503.50;;;8.37;44.26
46412;BME280;32113;42.012;24.870;2023-02-04T08:18:35;98482.16;;;8.41;43.74
46412;BME280;32113;42.012;24.870;2023-02-04T08:21:00;98502.50;;;8.52;43.46
46412;BME280;32113;42.012;24.870;2023-02-04T08:23:26;98500.81;;;8.51;42.90
46412;BME280;32113;42.012;24.870;2023-02-04T08:25:51;98497.31;;;8.61;41.78
46412;BME280;32113;42.012;24.870;2023-02-04T08:28:16;98467.19;;;8.85;44.75
46412;BME280;32113;42.012;24.870;2023-02-04T08:30:42;98473.97;;;8.88;42.70
46412;BME280;32113;42.012;24.870;2023-02-04T08:33:07;98475.72;;;8.86;42.09
46412;BME280;32113;42.012;24.870;2023-02-04T08:35:32;98470.63;;;8.81;41.09
46412;BME280;32113;42.012;24.870;2023-02-04T08:37:58;98470.53;;;8.89;41.66
46412;BME280;32113;42.012;24.870;2023-02-04T08:40:23;98466.09;;;9.03;40.74
46412;BME280;32113;42.012;24.870;2023-02-04T08:42:48;98466.16;;;9.00;40.44
46412;BME280;32113;42.012;24.870;2023-02-04T08:45:14;98467.84;;;9.01;40.57
46412;BME280;32113;42.012;24.870;2023-02-04T08:47:39;98456.75;;;8.99;40.78
46412;BME280;32113;42.012;24.870;2023-02-04T08:50:04;98466.91;;;9.07;41.08
46412;BME280;32113;42.012;24.870;2023-02-04T08:52:30;98460.81;;;9.14;39.86
46412;BME280;32113;42.012;24.870;2023-02-04T08:54:55;98468.38;;;9.24;39.16
46412;BME280;32113;42.012;24.870;2023-02-04T08:57:20;98453.59;;;9.43;39.82
46412;BME280;32113;42.012;24.870;2023-02-04T08:59:46;98446.28;;;9.73;39.26
46412;BME280;32113;42.012;24.870;2023-02-04T09:02:11;98449.63;;;9.77;37.94
46412;BME280;32113;42.012;24.870;2023-02-04T09:04:36;98440.72;;;9.99;38.52
46412;BME280;32113;42.012;24.870;2023-02-04T09:07:02;98441.84;;;10.32;37.58
46412;BME280;32113;42.012;24.870;2023-02-04T09:09:27;98443.56;;;10.75;37.57
46412;BME280;32113;42.012;24.870;2023-02-04T09:11:53;98442.72;;;11.16;36.24
46412;BME280;32113;42.012;24.870;2023-02-04T09:14:18;98435.06;;;11.51;35.50
46412;BME280;32113;42.012;24.870;2023-02-04T09:16:43;98432.09;;;11.68;34.04
46412;BME280;32113;42.012;24.870;2023-02-04T09:19:08;98428.84;;;11.94;34.24
46412;BME280;32113;42.012;24.870;2023-02-04T09:21:36;98425.19;;;12.05;34.22
46412;BME280;32113;42.012;24.870;2023-02-04T09:24:02;98424.47;;;12.31;34.13
46412;BME280;32113;42.012;24.870;2023-02-04T09:26:27;98421.78;;;12.66;33.34
46412;BME280;32113;42.012;24.870;2023-02-04T09:28:52;98428.81;;;12.91;32.83
46412;BME280;32113;42.012;24.870;2023-02-04T09:31:17;98432.50;;;13.11;31.93
46412;BME280;32113;42.012;24.870;2023-02-04T09:33:43;98417.81;;;12.86;31.89
46412;BME280;32113;42.012;24.870;2023-02-04T09:36:08;98408.88;;;12.98;32.34
46412;BME280;32113;42.012;24.870;2023-02-04T09:38:33;98425.88;;;12.73;31.93
46412;BME280;32113;42.012;24.870;2023-02-04T09:41:00;98426.88;;;12.69;32.35
46412;BME280;32113;42.012;24.870;2023-02-04T09:43:27;98399.34;;;12.41;32.12
46412;BME280;32113;42.012;24.870;2023-02-04T09:45:53;98400.56;;;11.94;32.61
46412;BME280;32113;42.012;24.870;2023-02-04T09:48:20;98404.22;;;11.87;33.68
46412;BME280;32113;42.012;24.870;2023-02-04T09:50:46;98407.88;;;11.77;33.53
46412;BME280;32113;42.012;24.870;2023-02-04T09:53:12;98403.16;;;11.23;33.58
46412;BME280;32113;42.012;24.870;2023-02-04T09:55:39;98398.34;;;11.11;34.05
46412;BME280;32113;42.012;24.870;2023-02-04T09:58:10;98397.44;;;11.12;34.00
46412;BME280;32113;42.012;24.870;2023-02-04T10:00:37;98387.19;;;11.12;33.39
46412;BME280;32113;42.012;24.870;2023-02-04T10:03:07;98378.75;;;11.07;33.66
46412;BME280;32113;42.012;24.870;2023-02-04T10:05:35;98387.88;;;11.19;34.24
46412;BME280;32113;42.012;24.870;2023-02-04T10:08:01;98378.31;;;11.25;33.55
46412;BME280;32113;42.012;24.870;2023-02-04T10:10:28;98372.41;;;11.22;34.12
46412;BME280;32113;42.012;24.870;2023-02-04T10:12:56;98374.91;;;11.60;34.18
46412;BME280;32113;42.012;24.870;2023-02-04T10:15:22;98363.56;;;12.02;33.18
46412;BME280;32113;42.012;24.870;2023-02-04T10:17:50;98361.91;;;12.31;32.75
46412;BME280;32113;42.012;24.870;2023-02-04T10:20:20;98350.00;;;12.28;32.23
46412;BME280;32113;42.012;24.870;2023-02-04T10:22:46;98365.81;;;12.44;31.86
46412;BME280;32113;42.012;24.870;2023-02-04T10:25:13;98344.47;;;12.41;31.37
46412;BME280;32113;42.012;24.870;2023-02-04T10:30:46;98345.41;;;12.68;31.71
46412;BME280;32113;42.012;24.870;2023-02-04T10:33:38;98346.22;;;12.69;31.17
46412;BME280;32113;42.012;24.870;2023-02-04T10:35:59;98345.22;;;12.46;31.60
46412;BME280;32113;42.012;24.870;2023-02-04T10:38:24;98348.63;;;12.75;31.80
46412;BME280;32113;42.012;24.870;2023-02-04T10:41:01;98349.75;;;12.95;31.33
46412;BME280;32113;42.012;24.870;2023-02-04T10:43:27;98337.56;;;13.00;31.14
46412;BME280;32113;42.012;24.870;2023-02-04T10:46:02;98342.41;;;13.09;31.28
46412;BME280;32113;42.012;24.870;2023-02-04T10:48:27;98343.09;;;13.14;31.19
46412;BME280;32113;42.012;24.870;2023-02-04T10:50:54;98341.16;;;12.67;31.24
46412;BME280;32113;42.012;24.870;2023-02-04T10:53:21;98326.81;;;12.58;32.18
46412;BME280;32113;42.012;24.870;2023-02-04T10:56:10;98337.06;;;12.60;32.23
46412;BME280;32113;42.012;24.870;2023-02-04T10:58:39;98334.25;;;12.68;34.20
46412;BME280;32113;42.012;24.870;2023-02-04T11:01:08;98335.72;;;12.77;35.22
46412;BME280;32113;42.012;24.870;2023-02-04T11:03:33;98324.31;;;12.55;33.55
46412;BME280;32113;42.012;24.870;2023-02-04T11:05:59;98323.84;;;12.42;34.07
46412;BME280;32113;42.012;24.870;2023-02-04T11:10:53;98309.50;;;12.03;34.61
46412;BME280;32113;42.012;24.870;2023-02-04T11:13:24;98313.47;;;11.83;35.62
46412;BME280;32113;42.012;24.870;2023-02-04T11:15:53;98295.63;;;11.79;36.01
46412;BME280;32113;42.012;24.870;2023-02-04T11:20:45;98300.16;;;11.69;35.55
46412;BME280;32113;42.012;24.870;2023-02-04T11:23:14;98300.16;;;11.69;36.16
46412;BME280;32113;42.012;24.870;2023-02-04T11:25:40;98295.97;;;11.65;35.84
46412;BME280;32113;42.012;24.870;2023-02-04T11:31:00;98286.78;;;11.56;36.61
46412;BME280;32113;42.012;24.870;2023-02-04T11:33:36;98278.34;;;11.52;36.48
46412;BME280;32113;42.012;24.870;2023-02-04T11:36:03;98274.38;;;11.72;36.58
46412;BME280;32113;42.012;24.870;2023-02-04T11:38:29;98273.75;;;11.94;36.73
46412;BME280;32113;42.012;24.870;2023-02-04T11:40:57;98269.53;;;11.91;36.13
46412;BME280;32113;42.012;24.870;2023-02-04T11:43:22;98273.22;;;11.82;36.38
46412;BME280;32113;42.012;24.870;2023-02-04T11:45:48;98270.53;;;11.87;35.63
46412;BME280;32113;42.012;24.870;2023-02-04T11:48:24;98256.75;;;11.90;36.08
46412;BME280;32113;42.012;24.870;2023-02-04T11:50:56;98267.22;;;12.15;35.90
46412;BME280;32113;42.012;24.870;2023-02-04T11:53:29;98260.09;;;12.24;35.60
46412;BME280;32113;42.012;24.870;2023-02-04T11:55:54;98257.28;;;12.31;34.52
46412;BME280;32113;42.012;24.870;2023-02-04T11:58:20;98258.00;;;12.37;35.88
46412;BME280;32113;42.012;24.870;2023-02-04T12:00:46;98263.56;;;12.51;36.26
46412;BME280;32113;42.012;24.870;2023-02-04T12:03:25;98260.88;;;12.27;34.96
46412;BME280;32113;42.012;24.870;2023-02-04T12:05:51;98275.00;;;12.12;35.08
46412;BME280;32113;42.012;24.870;2023-02-04T12:10:48;98260.72;;;12.02;35.51
46412;BME280;32113;42.012;24.870;2023-02-04T12:13:16;98267.31;;;11.80;35.98
46412;BME280;32113;42.012;24.870;2023-02-04T12:15:41;98266.66;;;11.72;36.95
46412;BME280;32113;42.012;24.870;2023-02-04T12:18:08;98266.84;;;11.66;37.30
46412;BME280;32113;42.012;24.870;2023-02-04T12:20:34;98258.34;;;11.62;37.55
46412;BME280;32113;42.012;24.870;2023-02-04T12:23:00;98245.66;;;11.57;37.19
46412;BME280;32113;42.012;24.870;2023-02-04T12:25:25;98259.03;;;11.37;38.11
46412;BME280;32113;42.012;24.870;2023-02-04T12:27:51;98274.19;;;11.47;38.44
46412;BME280;32113;42.012;24.870;2023-02-04T12:30:18;98265.00;;;11.38;38.99
46412;BME280;32113;42.012;24.870;2023-02-04T12:32:44;98252.53;;;11.55;38.50
46412;BME280;32113;42.012;24.870;2023-02-04T12:35:10;98264.66;;;11.50;37.87
46412;BME280;32113;42.012;24.870;2023-02-04T12:37:35;98270.88;;;11.43;38.79
46412;BME280;32113;42.012;24.870;2023-02-04T12:40:00;98275.63;;;11.57;38.92
46412;BME280;32113;42.012;24.870;2023-02-04T12:42:25;98260.94;;;11.62;39.08
46412;BME280;32113;42.012;24.870;2023-02-04T12:44:51;98274.91;;;11.52;38.41
46412;BME280;32113;42.012;24.870;2023-02-04T12:47:16;98279.09;;;11.56;39.30
46412;BME280;32113;42.012;24.870;2023-02-04T12:49:41;98290.78;;;11.35;38.50
46412;BME280;32113;42.012;24.870;2023-02-04T12:52:07;98286.81;;;11.21;38.55
46412;BME280;32113;42.012;24.870;2023-02-04T12:54:33;98286.78;;;11.23;39.19
46412;BME280;32113;42.012;24.870;2023-02-04T12:56:58;98287.13;;;11.42;39.24
46412;BME280;32113;42.012;24.870;2023-02-04T12:59:24;98296.41;;;11.48;39.26
46412;BME280;32113;42.012;24.870;2023-02-04T13:01:49;98302.94;;;11.26;39.02
46412;BME280;32113;42.012;24.870;2023-02-04T13:04:15;98314.78;;;11.34;39.36
46412;BME280;32113;42.012;24.870;2023-02-04T13:06:40;98301.03;;;11.35;39.45
46412;BME280;32113;42.012;24.870;2023-02-04T13:09:05;98304.50;;;11.34;39.94